createdAt,value
2018-06-30T00:00:03.472Z,1019.98
2018-06-30T00:00:29.045Z,1019.96
2018-06-30T00:00:54.599Z,1019.96
2018-06-30T00:01:20.162Z,1019.99
2018-06-30T00:01:45.731Z,1020.01
2018-06-30T00:02:11.293Z,1019.98
2018-06-30T00:02:36.875Z,1020
2018-06-30T00:03:02.484Z,1019.99
2018-06-30T00:03:28.046Z,1019.98
2018-06-30T00:03:53.616Z,1020.03
2018-06-30T00:04:19.185Z,1020.03
2018-06-30T00:04:44.778Z,1019.98
2018-06-30T00:05:10.357Z,1020.02
2018-06-30T00:05:35.911Z,1020.01
2018-06-30T00:06:01.465Z,1020.04
2018-06-30T00:06:27.049Z,1020.07
2018-06-30T00:06:52.623Z,1020.03
2018-06-30T00:07:18.193Z,1020.01
2018-06-30T00:07:43.746Z,1020.03
2018-06-30T00:08:09.319Z,1020.03
2018-06-30T00:08:34.885Z,1020.02
2018-06-30T00:09:43.683Z,1020.06
2018-06-30T00:10:47.325Z,1020.04
2018-06-30T00:11:12.887Z,1020.09
2018-06-30T00:11:38.449Z,1020.11
2018-06-30T00:12:04.010Z,1020.05
2018-06-30T00:12:29.570Z,1020.06
2018-06-30T00:12:55.119Z,1020.07
2018-06-30T00:13:20.673Z,1020.08
2018-06-30T00:13:46.251Z,1020.09
2018-06-30T00:14:11.805Z,1020.07
2018-06-30T00:14:37.372Z,1020.12
2018-06-30T00:15:02.958Z,1020.06
2018-06-30T00:15:28.515Z,1020.1
2018-06-30T00:15:54.068Z,1020.1
2018-06-30T00:16:19.635Z,1020.16
2018-06-30T00:16:45.205Z,1020.15
2018-06-30T00:17:10.775Z,1020.13
2018-06-30T00:17:36.353Z,1020.17
2018-06-30T00:18:01.947Z,1020.16
2018-06-30T00:18:27.505Z,1020.21
2018-06-30T00:18:53.078Z,1020.16
2018-06-30T00:19:18.660Z,1020.16
2018-06-30T00:19:44.244Z,1020.17
2018-06-30T00:20:09.824Z,1020.16
2018-06-30T00:20:35.386Z,1020.19
2018-06-30T00:21:00.949Z,1020.19
2018-06-30T00:21:26.513Z,1020.21
2018-06-30T00:21:52.085Z,1020.16
2018-06-30T00:22:17.631Z,1020.16
2018-06-30T00:22:43.183Z,1020.15
2018-06-30T00:23:08.764Z,1020.18
2018-06-30T00:23:34.318Z,1020.16
2018-06-30T00:23:59.900Z,1020.2
2018-06-30T00:24:25.490Z,1020.18
2018-06-30T00:24:51.067Z,1020.15
2018-06-30T00:25:16.640Z,1020.14
2018-06-30T00:25:42.213Z,1020.16
2018-06-30T00:26:07.775Z,1020.17
2018-06-30T00:26:33.351Z,1020.17
2018-06-30T00:26:58.925Z,1020.2
2018-06-30T00:27:24.481Z,1020.18
2018-06-30T00:27:50.057Z,1020.18
2018-06-30T00:28:15.629Z,1020.18
2018-06-30T00:28:41.219Z,1020.19
2018-06-30T00:29:06.807Z,1020.18
2018-06-30T00:29:32.369Z,1020.12
2018-06-30T00:29:57.944Z,1020.12
2018-06-30T00:30:23.520Z,1020.09
2018-06-30T00:30:49.082Z,1020.15
2018-06-30T00:31:14.642Z,1020.15
2018-06-30T00:31:40.257Z,1020.17
2018-06-30T00:32:05.770Z,1020.16
2018-06-30T00:32:31.353Z,1020.14
2018-06-30T00:32:56.929Z,1020.15
2018-06-30T00:33:22.521Z,1020.16
2018-06-30T00:33:48.089Z,1020.17
2018-06-30T00:34:13.643Z,1020.17
2018-06-30T00:34:39.214Z,1020.18
2018-06-30T00:35:04.772Z,1020.16
2018-06-30T00:35:30.337Z,1020.17
2018-06-30T00:35:55.907Z,1020.13
2018-06-30T00:36:21.507Z,1020.16
2018-06-30T00:36:47.054Z,1020.16
2018-06-30T00:37:12.632Z,1020.17
2018-06-30T00:37:38.192Z,1020.17
2018-06-30T00:38:03.762Z,1020.12
2018-06-30T00:38:29.346Z,1020.15
2018-06-30T00:38:54.925Z,1020.11
2018-06-30T00:39:20.495Z,1020.14
2018-06-30T00:39:46.061Z,1020.15
2018-06-30T00:40:11.632Z,1020.14
2018-06-30T00:40:37.198Z,1020.13
2018-06-30T00:41:02.789Z,1020.1
2018-06-30T00:41:28.363Z,1020.12
2018-06-30T00:41:53.941Z,1020.08
2018-06-30T00:42:19.517Z,1020.1
2018-06-30T00:42:45.080Z,1020.1
2018-06-30T00:43:10.651Z,1020.1
2018-06-30T00:43:36.212Z,1020.1
2018-06-30T00:44:01.786Z,1020.09
2018-06-30T00:44:27.347Z,1020.13
2018-06-30T00:44:52.921Z,1020.1
2018-06-30T00:45:18.501Z,1020.13
2018-06-30T00:45:44.056Z,1020.17
2018-06-30T00:46:09.634Z,1020.12
2018-06-30T00:46:35.222Z,1020.12
2018-06-30T00:47:00.813Z,1020.13
2018-06-30T00:47:26.389Z,1020.16
2018-06-30T00:47:51.933Z,1020.17
2018-06-30T00:48:17.517Z,1020.21
2018-06-30T00:48:43.059Z,1020.16
2018-06-30T00:49:08.659Z,1020.17
2018-06-30T00:49:34.211Z,1020.18
2018-06-30T00:49:59.769Z,1020.2
2018-06-30T00:50:25.331Z,1020.17
2018-06-30T00:50:50.895Z,1020.2
2018-06-30T00:51:16.481Z,1020.18
2018-06-30T00:51:42.041Z,1020.18
2018-06-30T00:52:07.606Z,1020.15
2018-06-30T00:52:33.175Z,1020.14
2018-06-30T00:52:58.737Z,1020.23
2018-06-30T00:53:24.305Z,1020.21
2018-06-30T00:53:49.851Z,1020.17
2018-06-30T00:54:15.438Z,1020.2
2018-06-30T00:54:41.033Z,1020.21
2018-06-30T00:55:06.601Z,1020.24
2018-06-30T00:55:32.158Z,1020.2
2018-06-30T00:55:57.739Z,1020.18
2018-06-30T00:56:23.315Z,1020.21
2018-06-30T00:56:48.879Z,1020.22
2018-06-30T00:57:14.441Z,1020.23
2018-06-30T00:57:40.027Z,1020.21
2018-06-30T00:58:05.579Z,1020.24
2018-06-30T00:58:31.137Z,1020.19
2018-06-30T00:58:56.701Z,1020.2
2018-06-30T00:59:22.257Z,1020.23
2018-06-30T00:59:47.836Z,1020.18
2018-06-30T01:00:13.401Z,1020.2
2018-06-30T01:00:38.985Z,1020.21
2018-06-30T01:01:04.557Z,1020.21
2018-06-30T01:01:30.118Z,1020.21
2018-06-30T01:01:55.695Z,1020.18
2018-06-30T01:02:21.261Z,1020.22
2018-06-30T01:02:46.831Z,1020.19
2018-06-30T01:03:12.414Z,1020.2
2018-06-30T01:03:38.021Z,1020.19
2018-06-30T01:04:03.616Z,1020.18
2018-06-30T01:04:29.195Z,1020.19
2018-06-30T01:04:54.770Z,1020.2
2018-06-30T01:05:20.335Z,1020.22
2018-06-30T01:05:45.911Z,1020.22
2018-06-30T01:06:11.495Z,1020.22
2018-06-30T01:06:37.055Z,1020.22
2018-06-30T01:07:02.626Z,1020.25
2018-06-30T01:07:28.185Z,1020.25
2018-06-30T01:07:53.785Z,1020.25
2018-06-30T01:08:19.355Z,1020.27
2018-06-30T01:08:44.925Z,1020.28
2018-06-30T01:09:10.489Z,1020.22
2018-06-30T01:09:36.054Z,1020.22
2018-06-30T01:10:01.627Z,1020.23
2018-06-30T01:10:27.214Z,1020.26
2018-06-30T01:10:52.765Z,1020.26
2018-06-30T01:11:18.318Z,1020.23
2018-06-30T01:11:43.880Z,1020.27
2018-06-30T01:12:09.442Z,1020.19
2018-06-30T01:12:35.012Z,1020.21
2018-06-30T01:13:00.557Z,1020.24
2018-06-30T01:13:26.123Z,1020.21
2018-06-30T01:13:51.702Z,1020.21
2018-06-30T01:14:17.253Z,1020.25
2018-06-30T01:14:42.830Z,1020.24
2018-06-30T01:15:08.417Z,1020.23
2018-06-30T01:15:33.989Z,1020.24
2018-06-30T01:15:59.555Z,1020.19
2018-06-30T01:16:25.096Z,1020.22
2018-06-30T01:16:50.679Z,1020.23
2018-06-30T01:17:16.282Z,1020.21
2018-06-30T01:17:41.829Z,1020.21
2018-06-30T01:18:07.422Z,1020.2
2018-06-30T01:18:32.993Z,1020.21
2018-06-30T01:18:58.565Z,1020.21
2018-06-30T01:19:24.121Z,1020.19
2018-06-30T01:19:49.691Z,1020.2
2018-06-30T01:20:15.252Z,1020.21
2018-06-30T01:20:40.821Z,1020.23
2018-06-30T01:21:06.383Z,1020.22
2018-06-30T01:21:31.969Z,1020.22
2018-06-30T01:21:57.557Z,1020.22
2018-06-30T01:22:23.135Z,1020.19
2018-06-30T01:22:48.690Z,1020.22
2018-06-30T01:23:14.265Z,1020.22
2018-06-30T01:23:39.829Z,1020.22
2018-06-30T01:24:05.393Z,1020.2
2018-06-30T01:24:30.968Z,1020.21
2018-06-30T01:24:56.514Z,1020.24
2018-06-30T01:25:22.074Z,1020.21
2018-06-30T01:25:47.641Z,1020.22
2018-06-30T01:26:13.196Z,1020.21
2018-06-30T01:26:38.776Z,1020.25
2018-06-30T01:27:04.350Z,1020.24
2018-06-30T01:27:29.917Z,1020.24
2018-06-30T01:27:55.485Z,1020.22
2018-06-30T01:28:21.066Z,1020.23
2018-06-30T01:28:46.632Z,1020.24
2018-06-30T01:29:12.201Z,1020.24
2018-06-30T01:29:37.781Z,1020.23
2018-06-30T01:30:03.373Z,1020.24
2018-06-30T01:30:28.943Z,1020.25
2018-06-30T01:30:54.521Z,1020.23
2018-06-30T01:31:20.083Z,1020.26
2018-06-30T01:31:45.662Z,1020.23
2018-06-30T01:32:11.240Z,1020.22
2018-06-30T01:32:36.809Z,1020.23
2018-06-30T01:33:02.390Z,1020.27
2018-06-30T01:33:27.951Z,1020.25
2018-06-30T01:33:53.533Z,1020.25
2018-06-30T01:34:19.097Z,1020.28
2018-06-30T01:34:44.658Z,1020.26
2018-06-30T01:35:10.201Z,1020.2
2018-06-30T01:35:35.791Z,1020.22
2018-06-30T01:36:01.362Z,1020.23
2018-06-30T01:36:26.929Z,1020.23
2018-06-30T01:36:52.492Z,1020.23
2018-06-30T01:37:18.055Z,1020.24
2018-06-30T01:37:43.610Z,1020.24
2018-06-30T01:38:09.194Z,1020.21
2018-06-30T01:38:34.763Z,1020.23
2018-06-30T01:39:00.323Z,1020.25
2018-06-30T01:39:25.893Z,1020.22
2018-06-30T01:39:51.466Z,1020.24
2018-06-30T01:40:17.050Z,1020.26
2018-06-30T01:40:42.631Z,1020.24
2018-06-30T01:41:08.207Z,1020.19
2018-06-30T01:41:33.773Z,1020.23
2018-06-30T01:41:59.370Z,1020.25
2018-06-30T01:42:24.940Z,1020.24
2018-06-30T01:42:50.508Z,1020.22
2018-06-30T01:43:16.080Z,1020.23
2018-06-30T01:43:41.667Z,1020.22
2018-06-30T01:44:07.224Z,1020.23
2018-06-30T01:44:32.791Z,1020.24
2018-06-30T01:44:58.356Z,1020.21
2018-06-30T01:45:23.924Z,1020.22
2018-06-30T01:45:49.487Z,1020.2
2018-06-30T01:46:15.046Z,1020.21
2018-06-30T01:46:40.594Z,1020.2
2018-06-30T01:47:06.179Z,1020.21
2018-06-30T01:47:31.754Z,1020.19
2018-06-30T01:47:57.335Z,1020.19
2018-06-30T01:48:22.925Z,1020.17
2018-06-30T01:48:48.494Z,1020.16
2018-06-30T01:49:14.061Z,1020.17
2018-06-30T01:49:39.640Z,1020.18
2018-06-30T01:50:05.190Z,1020.16
2018-06-30T01:50:30.759Z,1020.2
2018-06-30T01:50:56.318Z,1020.16
2018-06-30T01:51:21.898Z,1020.15
2018-06-30T01:51:47.475Z,1020.15
2018-06-30T01:52:13.043Z,1020.2
2018-06-30T01:52:38.604Z,1020.18
2018-06-30T01:53:04.176Z,1020.2
2018-06-30T01:53:29.738Z,1020.16
2018-06-30T01:53:55.301Z,1020.2
2018-06-30T01:54:20.867Z,1020.17
2018-06-30T01:54:46.442Z,1020.19
2018-06-30T01:55:11.996Z,1020.15
2018-06-30T01:55:37.560Z,1020.14
2018-06-30T01:56:03.131Z,1020.13
2018-06-30T01:56:28.705Z,1020.13
2018-06-30T01:56:54.272Z,1020.16
2018-06-30T01:57:19.843Z,1020.11
2018-06-30T01:57:45.408Z,1020.15
2018-06-30T01:58:10.979Z,1020.13
2018-06-30T01:58:36.545Z,1020.13
2018-06-30T01:59:02.125Z,1020.15
2018-06-30T01:59:27.719Z,1020.14
2018-06-30T01:59:53.292Z,1020.15
2018-06-30T02:00:18.860Z,1020.11
2018-06-30T02:00:44.422Z,1020.09
2018-06-30T02:01:09.991Z,1020.12
2018-06-30T02:01:35.554Z,1020.13
2018-06-30T02:02:01.123Z,1020.11
2018-06-30T02:02:26.681Z,1020.15
2018-06-30T02:02:52.256Z,1020.12
2018-06-30T02:03:17.819Z,1020.15
2018-06-30T02:03:43.395Z,1020.12
2018-06-30T02:04:08.956Z,1020.12
2018-06-30T02:04:34.546Z,1020.14
2018-06-30T02:05:00.093Z,1020.18
2018-06-30T02:05:25.653Z,1020.14
2018-06-30T02:05:51.247Z,1020.14
2018-06-30T02:06:16.816Z,1020.15
2018-06-30T02:06:42.379Z,1020.17
2018-06-30T02:07:07.955Z,1020.15
2018-06-30T02:07:33.518Z,1020.2
2018-06-30T02:07:59.089Z,1020.14
2018-06-30T02:08:24.654Z,1020.17
2018-06-30T02:08:50.232Z,1020.18
2018-06-30T02:09:15.804Z,1020.21
2018-06-30T02:09:41.366Z,1020.19
2018-06-30T02:10:06.943Z,1020.18
2018-06-30T02:10:32.532Z,1020.15
2018-06-30T02:10:58.111Z,1020.21
2018-06-30T02:11:23.698Z,1020.2
2018-06-30T02:11:49.263Z,1020.19
2018-06-30T02:12:14.834Z,1020.19
2018-06-30T02:12:40.378Z,1020.17
2018-06-30T02:13:05.943Z,1020.19
2018-06-30T02:13:31.526Z,1020.22
2018-06-30T02:13:57.090Z,1020.21
2018-06-30T02:14:22.667Z,1020.22
2018-06-30T02:14:48.212Z,1020.19
2018-06-30T02:15:13.788Z,1020.25
2018-06-30T02:15:39.353Z,1020.27
2018-06-30T02:16:04.919Z,1020.22
2018-06-30T02:16:30.489Z,1020.17
2018-06-30T02:16:56.054Z,1020.23
2018-06-30T02:17:21.620Z,1020.22
2018-06-30T02:17:47.191Z,1020.27
2018-06-30T02:18:12.754Z,1020.24
2018-06-30T02:18:38.327Z,1020.21
2018-06-30T02:19:03.897Z,1020.23
2018-06-30T02:19:29.471Z,1020.23
2018-06-30T02:19:55.020Z,1020.21
2018-06-30T02:20:20.587Z,1020.23
2018-06-30T02:20:46.145Z,1020.19
2018-06-30T02:21:11.736Z,1020.26
2018-06-30T02:21:37.324Z,1020.24
2018-06-30T02:22:02.842Z,1020.25
2018-06-30T02:22:28.397Z,1020.28
2018-06-30T02:22:53.944Z,1020.26
2018-06-30T02:23:19.495Z,1020.27
2018-06-30T02:23:45.073Z,1020.28
2018-06-30T02:24:10.640Z,1020.3
2018-06-30T02:24:36.209Z,1020.29
2018-06-30T02:25:01.774Z,1020.34
2018-06-30T02:25:27.348Z,1020.32
2018-06-30T02:25:52.918Z,1020.34
2018-06-30T02:26:18.489Z,1020.31
2018-06-30T02:26:44.056Z,1020.32
2018-06-30T02:27:09.629Z,1020.3
2018-06-30T02:27:35.204Z,1020.31
2018-06-30T02:28:00.767Z,1020.34
2018-06-30T02:28:26.336Z,1020.29
2018-06-30T02:28:51.914Z,1020.31
2018-06-30T02:29:17.476Z,1020.3
2018-06-30T02:29:43.047Z,1020.31
2018-06-30T02:30:08.628Z,1020.35
2018-06-30T02:30:34.189Z,1020.33
2018-06-30T02:30:59.766Z,1020.33
2018-06-30T02:31:25.341Z,1020.34
2018-06-30T02:31:50.909Z,1020.32
2018-06-30T02:32:16.478Z,1020.3
2018-06-30T02:32:42.041Z,1020.37
2018-06-30T02:33:07.633Z,1020.35
2018-06-30T02:33:33.199Z,1020.36
2018-06-30T02:33:58.768Z,1020.38
2018-06-30T02:34:24.332Z,1020.4
2018-06-30T02:34:49.909Z,1020.42
2018-06-30T02:35:15.512Z,1020.39
2018-06-30T02:35:41.079Z,1020.41
2018-06-30T02:36:06.641Z,1020.4
2018-06-30T02:36:32.213Z,1020.39
2018-06-30T02:36:57.778Z,1020.42
2018-06-30T02:37:23.336Z,1020.42
2018-06-30T02:37:48.907Z,1020.42
2018-06-30T02:38:14.477Z,1020.45
2018-06-30T02:38:40.057Z,1020.46
2018-06-30T02:39:05.736Z,1020.42
2018-06-30T02:39:31.182Z,1020.42
2018-06-30T02:39:56.744Z,1020.47
2018-06-30T02:40:22.309Z,1020.44
2018-06-30T02:40:47.871Z,1020.47
2018-06-30T02:41:13.425Z,1020.42
2018-06-30T02:41:39.011Z,1020.41
2018-06-30T02:42:04.579Z,1020.46
2018-06-30T02:42:30.151Z,1020.38
2018-06-30T02:42:55.695Z,1020.43
2018-06-30T02:43:21.272Z,1020.42
2018-06-30T02:43:46.862Z,1020.43
2018-06-30T02:44:12.429Z,1020.47
2018-06-30T02:44:38.011Z,1020.38
2018-06-30T02:45:03.573Z,1020.45
2018-06-30T02:45:29.119Z,1020.41
2018-06-30T02:45:54.678Z,1020.43
2018-06-30T02:46:20.248Z,1020.41
2018-06-30T02:46:45.799Z,1020.45
2018-06-30T02:47:11.372Z,1020.47
2018-06-30T02:47:36.930Z,1020.45
2018-06-30T02:48:02.488Z,1020.47
2018-06-30T02:48:28.046Z,1020.47
2018-06-30T02:48:53.651Z,1020.45
2018-06-30T02:49:19.202Z,1020.46
2018-06-30T02:49:44.766Z,1020.47
2018-06-30T02:50:10.368Z,1020.45
2018-06-30T02:50:35.937Z,1020.48
2018-06-30T02:51:01.499Z,1020.45
2018-06-30T02:51:27.078Z,1020.47
2018-06-30T02:51:52.658Z,1020.49
2018-06-30T02:52:18.212Z,1020.48
2018-06-30T02:52:43.782Z,1020.45
2018-06-30T02:53:09.345Z,1020.47
2018-06-30T02:53:34.917Z,1020.48
2018-06-30T02:54:00.480Z,1020.48
2018-06-30T02:54:26.076Z,1020.47
2018-06-30T02:54:51.642Z,1020.48
2018-06-30T02:55:17.190Z,1020.5
2018-06-30T02:55:42.770Z,1020.49
2018-06-30T02:56:08.320Z,1020.51
2018-06-30T02:56:33.887Z,1020.49
2018-06-30T02:56:59.464Z,1020.51
2018-06-30T02:57:25.053Z,1020.51
2018-06-30T02:57:50.621Z,1020.5
2018-06-30T02:58:16.185Z,1020.54
2018-06-30T02:58:41.759Z,1020.52
2018-06-30T02:59:07.332Z,1020.5
2018-06-30T02:59:32.888Z,1020.54
2018-06-30T02:59:58.482Z,1020.52
2018-06-30T03:00:24.052Z,1020.57
2018-06-30T03:00:49.604Z,1020.53
2018-06-30T03:01:15.167Z,1020.55
2018-06-30T03:01:40.763Z,1020.48
2018-06-30T03:02:06.363Z,1020.55
2018-06-30T03:02:31.906Z,1020.55
2018-06-30T03:02:57.474Z,1020.51
2018-06-30T03:03:23.043Z,1020.55
2018-06-30T03:03:48.624Z,1020.54
2018-06-30T03:04:14.189Z,1020.57
2018-06-30T03:04:39.794Z,1020.59
2018-06-30T03:05:05.372Z,1020.54
2018-06-30T03:05:30.933Z,1020.56
2018-06-30T03:05:56.497Z,1020.57
2018-06-30T03:06:22.071Z,1020.58
2018-06-30T03:06:47.654Z,1020.59
2018-06-30T03:07:13.236Z,1020.6
2018-06-30T03:07:38.797Z,1020.56
2018-06-30T03:08:04.390Z,1020.59
2018-06-30T03:08:29.965Z,1020.57
2018-06-30T03:08:55.498Z,1020.57
2018-06-30T03:09:21.068Z,1020.57
2018-06-30T03:09:46.640Z,1020.57
2018-06-30T03:10:12.204Z,1020.56
2018-06-30T03:10:37.766Z,1020.59
2018-06-30T03:11:03.333Z,1020.56
2018-06-30T03:11:28.888Z,1020.56
2018-06-30T03:11:54.447Z,1020.53
2018-06-30T03:12:19.989Z,1020.57
2018-06-30T03:12:45.565Z,1020.54
2018-06-30T03:13:11.130Z,1020.52
2018-06-30T03:13:36.666Z,1020.54
2018-06-30T03:14:02.236Z,1020.54
2018-06-30T03:14:27.802Z,1020.59
2018-06-30T03:14:53.360Z,1020.53
2018-06-30T03:15:18.918Z,1020.52
2018-06-30T03:15:44.516Z,1020.51
2018-06-30T03:16:10.074Z,1020.54
2018-06-30T03:16:35.653Z,1020.51
2018-06-30T03:17:01.231Z,1020.59
2018-06-30T03:17:26.789Z,1020.56
2018-06-30T03:17:52.343Z,1020.54
2018-06-30T03:18:17.914Z,1020.56
2018-06-30T03:18:43.482Z,1020.55
2018-06-30T03:19:09.052Z,1020.59
2018-06-30T03:19:34.634Z,1020.58
2018-06-30T03:20:00.204Z,1020.56
2018-06-30T03:20:25.794Z,1020.6
2018-06-30T03:20:51.350Z,1020.58
2018-06-30T03:21:16.934Z,1020.56
2018-06-30T03:21:42.514Z,1020.56
2018-06-30T03:22:08.121Z,1020.55
2018-06-30T03:22:33.688Z,1020.54
2018-06-30T03:22:59.260Z,1020.56
2018-06-30T03:23:24.848Z,1020.6
2018-06-30T03:23:50.437Z,1020.57
2018-06-30T03:24:16.008Z,1020.58
2018-06-30T03:24:41.567Z,1020.57
2018-06-30T03:25:07.144Z,1020.57
2018-06-30T03:25:32.768Z,1020.56
2018-06-30T03:25:58.318Z,1020.57
2018-06-30T03:26:23.903Z,1020.57
2018-06-30T03:26:49.459Z,1020.59
2018-06-30T03:27:15.052Z,1020.6
2018-06-30T03:27:40.628Z,1020.6
2018-06-30T03:28:06.197Z,1020.57
2018-06-30T03:28:31.754Z,1020.62
2018-06-30T03:28:57.326Z,1020.59
2018-06-30T03:29:22.884Z,1020.58
2018-06-30T03:29:48.442Z,1020.57
2018-06-30T03:30:14.011Z,1020.55
2018-06-30T03:30:39.580Z,1020.55
2018-06-30T03:31:05.164Z,1020.59
2018-06-30T03:31:30.781Z,1020.57
2018-06-30T03:31:56.310Z,1020.56
2018-06-30T03:32:21.878Z,1020.55
2018-06-30T03:32:47.450Z,1020.6
2018-06-30T03:33:13.019Z,1020.57
2018-06-30T03:33:38.592Z,1020.59
2018-06-30T03:34:04.153Z,1020.59
2018-06-30T03:34:29.710Z,1020.59
2018-06-30T03:34:55.292Z,1020.61
2018-06-30T03:35:20.857Z,1020.62
2018-06-30T03:35:46.435Z,1020.63
2018-06-30T03:36:12.015Z,1020.61
2018-06-30T03:36:37.597Z,1020.6
2018-06-30T03:37:03.163Z,1020.61
2018-06-30T03:37:28.734Z,1020.64
2018-06-30T03:37:54.286Z,1020.65
2018-06-30T03:38:19.855Z,1020.65
2018-06-30T03:38:45.436Z,1020.62
2018-06-30T03:39:11.013Z,1020.64
2018-06-30T03:39:36.578Z,1020.65
2018-06-30T03:40:02.137Z,1020.64
2018-06-30T03:40:27.690Z,1020.62
2018-06-30T03:40:53.250Z,1020.67
2018-06-30T03:41:18.829Z,1020.66
2018-06-30T03:41:44.428Z,1020.66
2018-06-30T03:42:09.965Z,1020.63
2018-06-30T03:42:35.540Z,1020.64
2018-06-30T03:43:01.102Z,1020.65
2018-06-30T03:43:26.690Z,1020.63
2018-06-30T03:43:52.246Z,1020.65
2018-06-30T03:44:17.814Z,1020.63
2018-06-30T03:44:43.435Z,1020.65
2018-06-30T03:45:09.022Z,1020.64
2018-06-30T03:45:34.554Z,1020.66
2018-06-30T03:46:00.136Z,1020.68
2018-06-30T03:46:25.717Z,1020.63
2018-06-30T03:46:51.254Z,1020.67
2018-06-30T03:47:16.825Z,1020.68
2018-06-30T03:47:42.444Z,1020.71
2018-06-30T03:48:08.012Z,1020.67
2018-06-30T03:48:33.606Z,1020.68
2018-06-30T03:48:59.182Z,1020.69
2018-06-30T03:49:24.743Z,1020.72
2018-06-30T03:49:50.301Z,1020.67
2018-06-30T03:50:15.865Z,1020.75
2018-06-30T03:50:41.430Z,1020.73
2018-06-30T03:51:07.004Z,1020.74
2018-06-30T03:51:32.601Z,1020.75
2018-06-30T03:51:58.203Z,1020.71
2018-06-30T03:52:23.762Z,1020.73
2018-06-30T03:52:49.326Z,1020.73
2018-06-30T03:53:14.920Z,1020.74
2018-06-30T03:53:40.493Z,1020.73
2018-06-30T03:54:06.044Z,1020.75
2018-06-30T03:54:31.608Z,1020.78
2018-06-30T03:54:57.194Z,1020.78
2018-06-30T03:55:22.810Z,1020.78
2018-06-30T03:55:48.406Z,1020.84
2018-06-30T03:56:14.004Z,1020.81
2018-06-30T03:56:39.552Z,1020.83
2018-06-30T03:57:05.133Z,1020.79
2018-06-30T03:57:30.722Z,1020.8
2018-06-30T03:57:56.340Z,1020.78
2018-06-30T03:58:21.910Z,1020.81
2018-06-30T03:58:47.486Z,1020.79
2018-06-30T03:59:13.039Z,1020.8
2018-06-30T03:59:38.647Z,1020.74
2018-06-30T04:00:04.144Z,1020.83
2018-06-30T04:00:29.717Z,1020.81
2018-06-30T04:00:55.300Z,1020.79
2018-06-30T04:01:20.874Z,1020.8
2018-06-30T04:01:46.428Z,1020.78
2018-06-30T04:02:12.020Z,1020.83
2018-06-30T04:02:37.621Z,1020.83
2018-06-30T04:03:03.192Z,1020.77
2018-06-30T04:03:28.730Z,1020.83
2018-06-30T04:03:54.320Z,1020.84
2018-06-30T04:04:19.884Z,1020.79
2018-06-30T04:04:45.464Z,1020.8
2018-06-30T04:05:11.023Z,1020.81
2018-06-30T04:05:36.617Z,1020.83
2018-06-30T04:06:02.180Z,1020.87
2018-06-30T04:06:27.733Z,1020.87
2018-06-30T04:06:53.310Z,1020.83
2018-06-30T04:07:18.903Z,1020.82
2018-06-30T04:07:44.496Z,1020.81
2018-06-30T04:08:10.056Z,1020.86
2018-06-30T04:08:35.604Z,1020.86
2018-06-30T04:09:01.182Z,1020.85
2018-06-30T04:09:26.740Z,1020.82
2018-06-30T04:09:52.305Z,1020.84
2018-06-30T04:10:17.880Z,1020.86
2018-06-30T04:10:43.428Z,1020.86
2018-06-30T04:11:08.976Z,1020.86
2018-06-30T04:11:34.578Z,1020.87
2018-06-30T04:12:00.156Z,1020.88
2018-06-30T04:12:25.701Z,1020.86
2018-06-30T04:12:51.302Z,1020.86
2018-06-30T04:13:16.877Z,1020.86
2018-06-30T04:13:42.465Z,1020.89
2018-06-30T04:14:08.012Z,1020.88
2018-06-30T04:14:33.577Z,1020.91
2018-06-30T04:14:59.130Z,1020.91
2018-06-30T04:15:24.695Z,1020.89
2018-06-30T04:15:50.266Z,1020.85
2018-06-30T04:16:15.827Z,1020.92
2018-06-30T04:16:41.395Z,1020.89
2018-06-30T04:17:06.974Z,1020.93
2018-06-30T04:17:32.549Z,1020.9
2018-06-30T04:17:58.109Z,1020.93
2018-06-30T04:18:23.684Z,1020.9
2018-06-30T04:18:49.281Z,1020.9
2018-06-30T04:19:14.829Z,1020.97
2018-06-30T04:19:40.395Z,1020.94
2018-06-30T04:20:05.970Z,1020.97
2018-06-30T04:20:31.521Z,1020.92
2018-06-30T04:20:57.095Z,1020.95
2018-06-30T04:21:22.684Z,1020.96
2018-06-30T04:21:48.260Z,1020.96
2018-06-30T04:22:13.809Z,1020.98
2018-06-30T04:22:39.370Z,1020.98
2018-06-30T04:23:04.921Z,1021
2018-06-30T04:23:30.492Z,1021
2018-06-30T04:23:56.033Z,1020.98
2018-06-30T04:24:21.617Z,1020.99
2018-06-30T04:24:47.183Z,1021.03
2018-06-30T04:25:12.768Z,1020.99
2018-06-30T04:25:38.384Z,1021.02
2018-06-30T04:26:03.884Z,1021.02
2018-06-30T04:26:29.460Z,1021
2018-06-30T04:26:55.019Z,1021.01
2018-06-30T04:27:20.639Z,1020.99
2018-06-30T04:27:46.200Z,1021.03
2018-06-30T04:28:11.788Z,1021.04
2018-06-30T04:28:37.361Z,1021.01
2018-06-30T04:29:02.938Z,1020.99
2018-06-30T04:29:28.512Z,1021
2018-06-30T04:29:54.089Z,1021.02
2018-06-30T04:30:19.695Z,1021
2018-06-30T04:30:45.263Z,1021.02
2018-06-30T04:31:10.837Z,1021.05
2018-06-30T04:31:36.381Z,1021.04
2018-06-30T04:32:01.962Z,1021.03
2018-06-30T04:32:27.536Z,1021.06
2018-06-30T04:32:53.099Z,1021.03
2018-06-30T04:33:18.684Z,1021.09
2018-06-30T04:33:44.264Z,1021.06
2018-06-30T04:34:09.832Z,1021.04
2018-06-30T04:34:35.395Z,1021.06
2018-06-30T04:35:00.979Z,1021.04
2018-06-30T04:35:26.550Z,1021.11
2018-06-30T04:35:52.102Z,1021.07
2018-06-30T04:36:17.695Z,1021.03
2018-06-30T04:36:43.281Z,1021.08
2018-06-30T04:37:08.852Z,1021.07
2018-06-30T04:37:34.429Z,1021.08
2018-06-30T04:37:59.983Z,1021.04
2018-06-30T04:38:25.561Z,1021.09
2018-06-30T04:38:51.127Z,1021.09
2018-06-30T04:39:16.695Z,1021.06
2018-06-30T04:39:42.266Z,1021.05
2018-06-30T04:40:07.845Z,1021.1
2018-06-30T04:40:33.420Z,1021.06
2018-06-30T04:40:58.990Z,1021.07
2018-06-30T04:41:24.549Z,1021.11
2018-06-30T04:41:50.092Z,1021.09
2018-06-30T04:42:15.679Z,1021.02
2018-06-30T04:42:41.253Z,1021.09
2018-06-30T04:43:06.821Z,1021.06
2018-06-30T04:43:32.377Z,1021.05
2018-06-30T04:43:57.949Z,1021.11
2018-06-30T04:44:23.529Z,1021.11
2018-06-30T04:44:49.086Z,1021.08
2018-06-30T04:45:14.706Z,1021.04
2018-06-30T04:45:40.223Z,1021.08
2018-06-30T04:46:05.795Z,1021.11
2018-06-30T04:46:31.373Z,1021.07
2018-06-30T04:46:56.937Z,1021.08
2018-06-30T04:47:22.508Z,1021.08
2018-06-30T04:47:48.071Z,1021.07
2018-06-30T04:48:13.655Z,1021.09
2018-06-30T04:48:39.241Z,1021.06
2018-06-30T04:49:04.816Z,1021.1
2018-06-30T04:49:30.474Z,1021.05
2018-06-30T04:49:56.042Z,1021.08
2018-06-30T04:50:21.605Z,1021.1
2018-06-30T04:50:47.217Z,1021.14
2018-06-30T04:51:12.786Z,1021.12
2018-06-30T04:51:38.351Z,1021.16
2018-06-30T04:52:03.940Z,1021.15
2018-06-30T04:52:29.498Z,1021.16
2018-06-30T04:52:55.057Z,1021.13
2018-06-30T04:53:20.639Z,1021.14
2018-06-30T04:53:46.183Z,1021.16
2018-06-30T04:54:11.755Z,1021.14
2018-06-30T04:54:37.319Z,1021.13
2018-06-30T04:55:02.871Z,1021.15
2018-06-30T04:55:28.456Z,1021.15
2018-06-30T04:55:54.043Z,1021.15
2018-06-30T04:56:19.586Z,1021.15
2018-06-30T04:56:45.186Z,1021.12
2018-06-30T04:57:10.743Z,1021.11
2018-06-30T04:57:36.334Z,1021.15
2018-06-30T04:58:01.854Z,1021.13
2018-06-30T04:58:27.455Z,1021.11
2018-06-30T04:58:53.056Z,1021.13
2018-06-30T04:59:18.613Z,1021.16
2018-06-30T04:59:44.177Z,1021.14
2018-06-30T05:00:09.767Z,1021.16
2018-06-30T05:00:35.328Z,1021.16
2018-06-30T05:01:00.911Z,1021.18
2018-06-30T05:01:26.451Z,1021.14
2018-06-30T05:01:52.035Z,1021.19
2018-06-30T05:02:17.584Z,1021.15
2018-06-30T05:02:43.166Z,1021.15
2018-06-30T05:03:08.729Z,1021.18
2018-06-30T05:03:34.317Z,1021.16
2018-06-30T05:03:59.887Z,1021.11
2018-06-30T05:04:25.454Z,1021.16
2018-06-30T05:04:51.013Z,1021.16
2018-06-30T05:05:16.574Z,1021.19
2018-06-30T05:05:42.146Z,1021.19
2018-06-30T05:06:07.706Z,1021.16
2018-06-30T05:06:33.273Z,1021.2
2018-06-30T05:06:58.827Z,1021.19
2018-06-30T05:07:24.391Z,1021.16
2018-06-30T05:07:49.967Z,1021.13
2018-06-30T05:08:15.519Z,1021.13
2018-06-30T05:08:41.061Z,1021.17
2018-06-30T05:09:06.653Z,1021.12
2018-06-30T05:09:32.217Z,1021.13
2018-06-30T05:09:57.775Z,1021.11
2018-06-30T05:10:23.350Z,1021.15
2018-06-30T05:10:48.928Z,1021.1
2018-06-30T05:11:14.471Z,1021.11
2018-06-30T05:11:40.066Z,1021.11